createdAt,value
2023-05-07T00:00:11.301Z,12.32
2023-05-07T00:02:41.133Z,8.95
2023-05-07T00:05:10.829Z,6.70
2023-05-07T00:07:40.545Z,5.93
2023-05-07T00:10:10.447Z,7.30
2023-05-07T00:12:39.830Z,4.35
2023-05-07T00:15:09.992Z,2.75
2023-05-07T00:17:39.767Z,3.60
2023-05-07T00:20:10.559Z,3.17
2023-05-07T00:22:39.959Z,3.58
2023-05-07T00:25:09.828Z,2.88
2023-05-07T00:27:39.300Z,3.17
2023-05-07T00:30:09.880Z,3.67
2023-05-07T00:32:39.713Z,4.45
2023-05-07T00:35:09.862Z,2.78
2023-05-07T00:37:39.594Z,6.93
2023-05-07T00:40:10.392Z,5.70
2023-05-07T00:42:40.261Z,2.03
2023-05-07T00:45:09.851Z,2.67
2023-05-07T00:47:39.439Z,3.58
2023-05-07T00:50:09.981Z,1.70
2023-05-07T00:52:40.185Z,4.00
2023-05-07T00:55:10.359Z,2.60
2023-05-07T00:57:41.894Z,2.38
2023-05-07T01:00:12.639Z,1.70
2023-05-07T01:02:42.837Z,2.63
2023-05-07T01:05:17.663Z,2.97
2023-05-07T01:07:47.883Z,2.45
2023-05-07T01:10:18.444Z,2.72
2023-05-07T01:12:50.403Z,7.15
2023-05-07T01:15:20.476Z,1.35
2023-05-07T01:17:50.237Z,3.83
2023-05-07T01:20:30.596Z,1.13
2023-05-07T01:23:00.136Z,2.05
2023-05-07T01:25:29.496Z,4.00
2023-05-07T01:28:04.539Z,1.42
2023-05-07T01:30:38.521Z,5.18
2023-05-07T01:33:13.457Z,1.58
2023-05-07T01:35:47.758Z,1.67
2023-05-07T01:38:18.058Z,3.50
2023-05-07T01:40:48.450Z,1.50
2023-05-07T01:43:17.916Z,2.20
2023-05-07T01:45:48.246Z,3.55
2023-05-07T01:48:18.582Z,1.45
2023-05-07T01:50:48.659Z,2.20
2023-05-07T01:53:17.739Z,2.70
2023-05-07T01:55:47.501Z,1.65
2023-05-07T01:58:17.033Z,2.05
2023-05-07T02:00:46.500Z,4.05
2023-05-07T02:03:16.071Z,3.50
2023-05-07T02:06:03.504Z,1.20
2023-05-07T02:08:40.185Z,2.25
2023-05-07T02:11:09.829Z,2.33
2023-05-07T02:13:40.039Z,1.83
2023-05-07T02:16:09.923Z,5.68
2023-05-07T02:18:41.054Z,3.13
2023-05-07T02:21:10.528Z,2.58
2023-05-07T02:23:39.750Z,2.45
2023-05-07T02:26:09.117Z,1.95
2023-05-07T02:28:38.766Z,8.77
2023-05-07T02:31:08.646Z,5.60
2023-05-07T02:33:38.717Z,4.07
2023-05-07T02:36:14.420Z,2.50
2023-05-07T02:38:50.299Z,4.50
2023-05-07T02:41:20.664Z,3.38
2023-05-07T02:43:50.356Z,2.40
2023-05-07T02:46:20.655Z,3.85
2023-05-07T02:48:55.936Z,2.75
2023-05-07T02:51:26.229Z,3.88
2023-05-07T02:53:58.311Z,4.25
2023-05-07T02:56:29.264Z,3.45
2023-05-07T02:58:59.268Z,6.32
2023-05-07T03:01:32.907Z,4.22
2023-05-07T03:04:08.126Z,3.10
2023-05-07T03:06:37.420Z,2.65
2023-05-07T03:09:06.663Z,2.50
2023-05-07T03:11:36.126Z,3.22
2023-05-07T03:14:05.332Z,6.95
2023-05-07T03:16:35.181Z,2.75
2023-05-07T03:19:04.772Z,3.42
2023-05-07T03:21:35.800Z,5.85
2023-05-07T03:24:06.112Z,3.13
2023-05-07T03:26:35.840Z,4.88
2023-05-07T03:29:05.407Z,4.13
2023-05-07T03:31:35.260Z,5.55
2023-05-07T03:34:04.651Z,4.10
2023-05-07T03:36:33.865Z,6.05
2023-05-07T03:39:03.583Z,4.35
2023-05-07T03:41:39.243Z,4.97
2023-05-07T03:44:09.574Z,12.23
2023-05-07T03:46:39.467Z,4.78
2023-05-07T03:49:10.750Z,5.45
2023-05-07T03:51:40.058Z,11.35
2023-05-07T03:54:10.667Z,6.40
2023-05-07T03:56:45.310Z,4.05
2023-05-07T03:59:15.490Z,3.58
2023-05-07T04:01:47.412Z,3.10
2023-05-07T04:04:19.816Z,4.00
2023-05-07T04:06:49.518Z,4.20
2023-05-07T04:09:18.746Z,4.15
2023-05-07T04:11:50.189Z,2.90
2023-05-07T04:14:19.474Z,7.00
2023-05-07T04:16:48.622Z,3.40
2023-05-07T04:19:19.742Z,2.42
2023-05-07T04:21:52.930Z,5.20
2023-05-07T04:24:22.593Z,5.72
2023-05-07T04:26:53.178Z,2.85
2023-05-07T04:29:23.846Z,4.25
2023-05-07T04:31:53.354Z,4.15
2023-05-07T04:34:23.226Z,4.28
2023-05-07T04:36:54.577Z,3.25
2023-05-07T04:39:23.732Z,8.02
2023-05-07T04:41:53.297Z,8.48
2023-05-07T04:44:22.959Z,6.40
2023-05-07T04:46:52.169Z,4.82
2023-05-07T04:49:21.624Z,4.28
2023-05-07T04:51:53.054Z,3.58
2023-05-07T04:54:24.729Z,3.45
2023-05-07T04:56:54.463Z,4.32
2023-05-07T04:59:24.065Z,5.53
2023-05-07T05:01:53.732Z,4.30
2023-05-07T05:04:23.078Z,6.60
2023-05-07T05:06:52.777Z,4.85
2023-05-07T05:09:21.997Z,10.68
2023-05-07T05:11:51.752Z,11.10
2023-05-07T05:14:21.185Z,9.13
2023-05-07T05:16:50.597Z,5.93
2023-05-07T05:19:20.038Z,7.65
2023-05-07T05:21:49.699Z,9.05
2023-05-07T05:24:19.217Z,9.35
2023-05-07T05:26:48.487Z,4.90
2023-05-07T05:29:18.412Z,5.05
2023-05-07T05:31:47.830Z,5.90
2023-05-07T05:34:17.357Z,7.78
2023-05-07T05:36:47.397Z,7.22
2023-05-07T05:39:17.806Z,3.92
2023-05-07T05:41:47.687Z,4.28
2023-05-07T05:44:17.137Z,4.47
2023-05-07T05:46:46.681Z,6.22
2023-05-07T05:49:16.512Z,5.68
2023-05-07T05:51:46.498Z,4.53
2023-05-07T05:54:17.523Z,7.80
2023-05-07T05:56:47.029Z,8.18
2023-05-07T05:59:17.301Z,4.78
2023-05-07T06:01:47.697Z,9.65
2023-05-07T06:04:16.836Z,5.18
2023-05-07T06:06:46.696Z,6.07
2023-05-07T06:09:16.383Z,5.90
2023-05-07T06:11:47.340Z,3.58
2023-05-07T06:14:17.699Z,6.07
2023-05-07T06:16:47.017Z,8.73
2023-05-07T06:19:16.920Z,13.15
2023-05-07T06:21:46.616Z,5.72
2023-05-07T06:24:15.986Z,4.57
2023-05-07T06:26:49.053Z,6.50
2023-05-07T06:29:21.615Z,6.35
2023-05-07T06:31:55.919Z,6.20
2023-05-07T06:34:26.131Z,10.70
2023-05-07T06:36:55.640Z,8.70
2023-05-07T06:39:42.422Z,14.30
2023-05-07T06:42:12.644Z,6.60
2023-05-07T06:44:44.901Z,11.38
2023-05-07T06:47:17.296Z,5.75
2023-05-07T06:49:49.798Z,5.97
2023-05-07T06:52:22.027Z,5.28
2023-05-07T06:54:53.316Z,7.22
2023-05-07T06:57:24.985Z,6.47
2023-05-07T06:59:58.460Z,5.32
2023-05-07T07:02:28.814Z,7.20
2023-05-07T07:04:58.409Z,6.53
2023-05-07T07:07:27.995Z,13.45
2023-05-07T07:09:57.762Z,9.20
2023-05-07T07:12:28.078Z,6.65
2023-05-07T07:14:57.749Z,8.13
2023-05-07T07:17:27.505Z,7.47
2023-05-07T07:19:57.992Z,5.22
2023-05-07T07:22:27.386Z,8.35
2023-05-07T07:24:56.882Z,10.38
2023-05-07T07:27:27.585Z,9.32
2023-05-07T07:29:56.961Z,5.85
2023-05-07T07:32:28.290Z,15.18
2023-05-07T07:34:57.623Z,12.82
2023-05-07T07:37:27.608Z,6.93
2023-05-07T07:39:58.245Z,6.93
2023-05-07T07:42:28.391Z,8.23
2023-05-07T07:44:59.379Z,6.68
2023-05-07T07:47:32.029Z,6.07
2023-05-07T07:50:01.721Z,10.05
2023-05-07T07:52:31.725Z,11.30
2023-05-07T07:55:01.123Z,7.05
2023-05-07T07:57:30.884Z,8.20
2023-05-07T08:00:00.470Z,8.15
2023-05-07T08:02:31.906Z,4.55
2023-05-07T08:05:01.112Z,7.35
2023-05-07T08:07:30.271Z,5.15
2023-05-07T08:09:59.831Z,13.13
2023-05-07T08:12:32.024Z,7.15
2023-05-07T08:15:02.044Z,9.95
2023-05-07T08:17:31.943Z,8.95
2023-05-07T08:20:01.521Z,9.55
2023-05-07T08:22:36.241Z,5.22
2023-05-07T08:25:06.564Z,8.38
2023-05-07T08:27:35.966Z,10.50
2023-05-07T08:30:05.986Z,9.88
2023-05-07T08:32:35.614Z,7.97
2023-05-07T08:35:05.410Z,8.93
2023-05-07T08:37:35.443Z,6.72
2023-05-07T08:40:06.747Z,9.75
2023-05-07T08:42:40.578Z,13.00
2023-05-07T08:45:13.457Z,7.80
2023-05-07T08:47:49.416Z,13.45
2023-05-07T08:50:20.761Z,6.07
2023-05-07T08:52:52.240Z,8.27
2023-05-07T08:55:26.357Z,5.93
2023-05-07T08:57:56.897Z,8.52
2023-05-07T09:00:26.424Z,9.45
2023-05-07T09:02:57.546Z,8.13
2023-05-07T09:05:27.872Z,11.32
2023-05-07T09:07:58.464Z,13.68
2023-05-07T09:10:29.143Z,13.30
2023-05-07T09:12:58.577Z,8.85
2023-05-07T09:15:30.784Z,6.35
2023-05-07T09:18:03.664Z,5.32
2023-05-07T09:20:35.943Z,11.48
2023-05-07T09:23:05.821Z,4.88
2023-05-07T09:25:36.899Z,9.02
2023-05-07T09:28:13.512Z,8.98
2023-05-07T09:30:43.466Z,8.55
2023-05-07T09:33:15.179Z,5.60
2023-05-07T09:35:49.552Z,9.57
2023-05-07T09:38:23.783Z,11.88
2023-05-07T09:41:28.345Z,9.07
2023-05-07T09:44:06.201Z,12.23
2023-05-07T09:46:44.415Z,8.95
2023-05-07T09:49:27.330Z,8.20
2023-05-07T09:52:03.966Z,6.90
2023-05-07T09:54:39.938Z,10.15
2023-05-07T09:57:11.591Z,10.48
2023-05-07T09:59:46.086Z,9.38
2023-05-07T10:02:20.448Z,10.27
2023-05-07T10:04:56.789Z,11.80
2023-05-07T10:07:32.137Z,5.32
2023-05-07T10:10:09.347Z,6.57
2023-05-07T10:12:44.073Z,8.15
2023-05-07T10:15:19.748Z,6.25
2023-05-07T10:17:55.894Z,8.95
2023-05-07T10:20:27.985Z,7.85
2023-05-07T10:22:59.814Z,19.85
2023-05-07T10:25:37.441Z,9.50
2023-05-07T10:28:15.427Z,11.32
2023-05-07T10:31:04.942Z,6.30
2023-05-07T10:33:42.722Z,10.25
2023-05-07T10:36:13.077Z,9.00
2023-05-07T10:38:43.026Z,9.50
2023-05-07T10:41:13.568Z,5.82
2023-05-07T10:43:47.705Z,8.35
2023-05-07T10:46:31.729Z,8.65
2023-05-07T10:49:16.228Z,9.57
2023-05-07T10:52:23.745Z,7.43
2023-05-07T10:55:27.124Z,8.93
2023-05-07T10:58:32.521Z,7.10
2023-05-07T11:01:57.322Z,10.77
2023-05-07T11:04:36.850Z,9.55
2023-05-07T11:07:32.420Z,9.57
2023-05-07T11:12:58.243Z,12.15
2023-05-07T11:15:39.569Z,11.35
2023-05-07T11:18:20.295Z,7.70
2023-05-07T11:21:01.629Z,7.70
2023-05-07T11:23:39.838Z,7.55
2023-05-07T11:26:32.541Z,7.25
2023-05-07T11:29:03.058Z,10.35
2023-05-07T11:31:32.596Z,12.15
2023-05-07T11:34:03.999Z,9.15
2023-05-07T11:36:35.573Z,19.20
2023-05-07T11:39:09.305Z,10.48
2023-05-07T11:41:39.981Z,8.45
2023-05-07T11:44:09.365Z,8.25
2023-05-07T11:46:38.936Z,9.15
2023-05-07T11:49:08.747Z,7.75
2023-05-07T11:51:39.214Z,7.75
2023-05-07T11:54:13.351Z,12.90
2023-05-07T11:56:43.364Z,12.00
2023-05-07T11:59:12.506Z,12.63
2023-05-07T12:01:42.107Z,12.57
2023-05-07T12:04:14.243Z,9.85
2023-05-07T12:06:44.006Z,6.93
2023-05-07T12:09:13.711Z,6.65
2023-05-07T12:11:48.109Z,9.43
2023-05-07T12:14:20.264Z,7.50
2023-05-07T12:16:50.074Z,12.23
2023-05-07T12:19:20.073Z,9.38
2023-05-07T12:21:50.045Z,10.55
2023-05-07T12:24:21.939Z,9.85
2023-05-07T12:26:52.007Z,10.50
2023-05-07T12:29:25.021Z,18.48
2023-05-07T12:31:55.041Z,8.32
2023-05-07T12:34:25.184Z,7.40
2023-05-07T12:36:56.180Z,9.55
2023-05-07T12:39:25.387Z,14.30
2023-05-07T12:42:02.161Z,10.60
2023-05-07T12:44:35.551Z,13.13
2023-05-07T12:47:05.587Z,11.13
2023-05-07T12:49:39.835Z,15.13
2023-05-07T12:52:14.260Z,12.23
2023-05-07T12:54:44.187Z,14.52
2023-05-07T12:57:13.393Z,9.68
2023-05-07T12:59:44.261Z,16.00
2023-05-07T13:02:13.650Z,8.07
2023-05-07T13:04:44.737Z,12.75
2023-05-07T13:07:14.392Z,14.52
2023-05-07T13:09:44.489Z,13.10
2023-05-07T13:12:13.662Z,14.05
2023-05-07T13:14:42.673Z,11.95
2023-05-07T13:17:12.513Z,13.43
2023-05-07T13:19:41.615Z,15.30
2023-05-07T13:22:10.944Z,13.55
2023-05-07T13:24:40.310Z,13.43
2023-05-07T13:27:10.395Z,12.05
2023-05-07T13:29:39.604Z,19.90
2023-05-07T13:32:08.918Z,12.10
2023-05-07T13:34:38.986Z,14.70
2023-05-07T13:37:11.196Z,15.00
2023-05-07T13:39:41.017Z,19.30
2023-05-07T13:42:10.233Z,16.08
2023-05-07T13:44:39.389Z,19.15
2023-05-07T13:47:09.409Z,13.48
2023-05-07T13:49:38.444Z,15.82
2023-05-07T13:52:07.676Z,22.27
2023-05-07T13:54:36.870Z,22.50
2023-05-07T13:57:06.402Z,15.27
2023-05-07T13:59:36.010Z,15.93
2023-05-07T14:02:05.502Z,15.77
2023-05-07T14:04:34.737Z,12.75
2023-05-07T14:07:04.044Z,16.83
2023-05-07T14:09:33.592Z,20.90
2023-05-07T14:12:03.495Z,16.33
2023-05-07T14:14:32.814Z,16.80
2023-05-07T14:17:02.421Z,25.38
2023-05-07T14:19:35.148Z,20.15
2023-05-07T14:22:04.700Z,14.93
2023-05-07T14:24:38.756Z,17.20
2023-05-07T14:27:08.869Z,15.25
2023-05-07T14:29:38.675Z,22.15
2023-05-07T14:32:08.365Z,26.15
2023-05-07T14:34:37.400Z,24.25
2023-05-07T14:37:07.335Z,21.00
2023-05-07T14:39:36.639Z,24.27
2023-05-07T14:42:05.915Z,25.67
2023-05-07T14:44:37.148Z,19.20
2023-05-07T14:47:06.586Z,20.55
2023-05-07T14:49:36.377Z,15.75
2023-05-07T14:52:10.634Z,17.65
2023-05-07T14:54:40.581Z,17.13
2023-05-07T14:57:12.718Z,14.57
2023-05-07T14:59:42.225Z,15.73
2023-05-07T15:02:13.017Z,14.85
2023-05-07T15:04:47.617Z,13.63
2023-05-07T15:07:18.176Z,28.88
2023-05-07T15:09:48.113Z,16.70
2023-05-07T15:12:18.079Z,17.20
2023-05-07T15:14:47.235Z,16.08
2023-05-07T15:17:17.292Z,11.13
2023-05-07T15:19:46.533Z,13.43
2023-05-07T15:22:19.481Z,15.75
2023-05-07T15:24:49.016Z,20.17
2023-05-07T15:27:19.412Z,23.95
2023-05-07T15:30:13.048Z,14.07
2023-05-07T15:32:54.806Z,15.68
2023-05-07T15:35:25.374Z,23.13
2023-05-07T15:37:55.193Z,13.27
2023-05-07T15:40:24.260Z,15.75
2023-05-07T15:42:57.930Z,17.50
2023-05-07T15:45:27.400Z,19.77
2023-05-07T15:47:57.582Z,12.05
2023-05-07T15:50:27.198Z,14.55
2023-05-07T15:52:56.400Z,16.73
2023-05-07T15:55:26.576Z,19.38
2023-05-07T15:57:56.288Z,23.95
2023-05-07T16:00:29.538Z,22.02
2023-05-07T16:02:59.817Z,22.45
2023-05-07T16:05:29.269Z,28.83
2023-05-07T16:07:59.340Z,28.77
2023-05-07T16:10:28.932Z,26.05
2023-05-07T16:12:58.143Z,23.27
2023-05-07T16:15:27.851Z,22.63
2023-05-07T16:17:58.909Z,25.67
2023-05-07T16:20:33.976Z,23.08
2023-05-07T16:23:03.222Z,25.77
2023-05-07T16:25:32.927Z,23.70
2023-05-07T16:28:02.515Z,24.77
2023-05-07T16:30:32.375Z,29.98
2023-05-07T16:33:02.064Z,37.28
2023-05-07T16:35:32.370Z,35.92
2023-05-07T16:38:02.316Z,42.75
2023-05-07T16:40:31.413Z,37.15
2023-05-07T16:43:00.958Z,35.85
2023-05-07T16:45:30.392Z,39.22
2023-05-07T16:48:00.258Z,44.63
2023-05-07T16:50:37.085Z,32.72
2023-05-07T16:53:09.334Z,37.80
2023-05-07T16:55:42.819Z,30.37
2023-05-07T16:58:13.761Z,28.90
2023-05-07T17:00:50.575Z,25.58
2023-05-07T17:03:20.935Z,33.85
2023-05-07T17:05:50.124Z,29.20
2023-05-07T17:08:19.398Z,21.17
2023-05-07T17:10:48.698Z,26.67
2023-05-07T17:13:18.083Z,27.02
2023-05-07T17:15:48.655Z,25.15
2023-05-07T17:18:17.882Z,22.55
2023-05-07T17:20:47.276Z,18.30
2023-05-07T17:23:16.686Z,26.75
2023-05-07T17:25:46.838Z,17.45
2023-05-07T17:28:16.709Z,22.83
2023-05-07T17:30:47.699Z,20.65
2023-05-07T17:33:21.466Z,17.10
2023-05-07T17:35:51.814Z,15.52
2023-05-07T17:38:21.055Z,14.82
2023-05-07T17:40:50.442Z,22.25
2023-05-07T17:43:20.218Z,14.82
2023-05-07T17:45:49.646Z,15.98
2023-05-07T17:48:18.882Z,21.30
2023-05-07T17:50:49.605Z,15.63
2023-05-07T17:53:18.970Z,15.88
2023-05-07T17:55:48.996Z,16.08
2023-05-07T17:58:18.550Z,11.75
2023-05-07T18:00:47.672Z,21.67
2023-05-07T18:03:17.351Z,13.80
2023-05-07T18:05:47.195Z,16.00
2023-05-07T18:08:16.567Z,17.67
2023-05-07T18:10:45.805Z,16.75
2023-05-07T18:13:15.309Z,20.38
2023-05-07T18:15:47.306Z,16.80
2023-05-07T18:18:17.371Z,17.35
2023-05-07T18:20:56.257Z,21.95
2023-05-07T18:23:26.366Z,17.88
2023-05-07T18:25:55.842Z,16.83
2023-05-07T18:28:24.956Z,22.40
2023-05-07T18:30:54.930Z,23.45
2023-05-07T18:33:24.378Z,23.30
2023-05-07T18:35:53.980Z,25.15
2023-05-07T18:38:23.386Z,23.50
2023-05-07T18:40:52.516Z,24.55
2023-05-07T18:43:21.989Z,31.45
2023-05-07T18:45:51.188Z,31.88
2023-05-07T18:48:22.074Z,31.75
2023-05-07T18:50:52.151Z,29.40
2023-05-07T18:53:21.610Z,26.45
2023-05-07T18:55:54.513Z,29.85
2023-05-07T18:58:24.591Z,27.77
2023-05-07T19:00:54.027Z,36.38
2023-05-07T19:03:23.136Z,42.30
2023-05-07T19:05:52.533Z,38.88
2023-05-07T19:08:21.755Z,38.53
2023-05-07T19:10:51.525Z,45.03
2023-05-07T19:13:21.191Z,42.67
2023-05-07T19:15:50.974Z,44.15
2023-05-07T19:18:20.363Z,39.92
2023-05-07T19:20:53.544Z,41.58
2023-05-07T19:23:25.363Z,41.13
2023-05-07T19:25:54.820Z,45.95
2023-05-07T19:28:24.387Z,43.03
2023-05-07T19:30:54.617Z,40.03
2023-05-07T19:33:25.334Z,41.10
2023-05-07T19:35:59.371Z,45.45
2023-05-07T19:38:29.114Z,50.53
2023-05-07T19:41:01.796Z,50.90
2023-05-07T19:43:39.192Z,42.40
2023-05-07T19:46:08.646Z,41.85
2023-05-07T19:48:37.808Z,43.50
2023-05-07T19:51:07.582Z,38.58
2023-05-07T19:53:36.633Z,40.28
2023-05-07T19:56:11.042Z,38.60
2023-05-07T19:58:40.971Z,34.88
2023-05-07T20:01:10.553Z,31.27
2023-05-07T20:03:39.927Z,31.25
2023-05-07T20:06:09.426Z,35.08
2023-05-07T20:08:38.616Z,32.80
2023-05-07T20:11:08.060Z,40.42
2023-05-07T20:13:37.149Z,31.10
2023-05-07T20:16:06.714Z,35.15
2023-05-07T20:18:35.928Z,40.80
2023-05-07T20:21:05.938Z,42.88
2023-05-07T20:23:35.542Z,39.80
2023-05-07T20:26:04.867Z,40.65
2023-05-07T20:28:33.943Z,39.13
2023-05-07T20:31:03.467Z,38.30
2023-05-07T20:33:32.821Z,38.30
2023-05-07T20:36:02.096Z,35.30
2023-05-07T20:38:35.256Z,36.85
2023-05-07T20:41:15.374Z,40.17
2023-05-07T20:44:01.596Z,40.83
2023-05-07T20:46:31.412Z,39.35
2023-05-07T20:49:00.758Z,29.58
2023-05-07T20:51:30.035Z,33.47
2023-05-07T20:53:59.197Z,28.75
2023-05-07T20:56:28.788Z,27.48
2023-05-07T20:58:58.097Z,27.77
2023-05-07T21:01:27.228Z,29.13
2023-05-07T21:03:56.361Z,23.23
2023-05-07T21:06:27.311Z,24.73
2023-05-07T21:08:57.039Z,24.42
2023-05-07T21:11:26.568Z,25.40
2023-05-07T21:13:55.749Z,23.95
2023-05-07T21:16:25.046Z,27.35
2023-05-07T21:18:54.270Z,30.90
2023-05-07T21:21:23.610Z,35.65
2023-05-07T21:23:54.432Z,29.00
2023-05-07T21:26:24.004Z,28.20
2023-05-07T21:28:53.320Z,35.60
2023-05-07T21:31:23.040Z,30.20
2023-05-07T21:33:54.388Z,27.92
2023-05-07T21:36:23.654Z,25.33
2023-05-07T21:38:52.813Z,22.60
2023-05-07T21:41:23.054Z,26.85
2023-05-07T21:43:52.589Z,26.13
2023-05-07T21:46:21.981Z,22.02
2023-05-07T21:48:51.493Z,17.63
2023-05-07T21:51:20.432Z,20.25
2023-05-07T21:53:50.016Z,22.45
2023-05-07T21:56:19.172Z,14.40
2023-05-07T21:58:49.574Z,13.48
2023-05-07T22:01:19.381Z,15.18
2023-05-07T22:03:48.667Z,15.02
2023-05-07T22:06:22.836Z,12.30
2023-05-07T22:08:52.632Z,16.17
2023-05-07T22:11:23.288Z,10.80
2023-05-07T22:13:52.784Z,9.82
2023-05-07T22:16:22.514Z,10.35
2023-05-07T22:18:51.952Z,13.10
2023-05-07T22:21:21.201Z,12.45
2023-05-07T22:23:50.258Z,8.40
2023-05-07T22:26:19.612Z,13.55
2023-05-07T22:28:48.671Z,10.63
2023-05-07T22:31:18.661Z,9.25
2023-05-07T22:33:48.400Z,8.85
2023-05-07T22:36:17.374Z,7.63
2023-05-07T22:38:47.215Z,7.15
2023-05-07T22:41:17.158Z,9.65
2023-05-07T22:43:46.719Z,12.85
2023-05-07T22:46:16.563Z,9.93
2023-05-07T22:48:47.198Z,20.60
2023-05-07T22:51:16.934Z,15.50
2023-05-07T22:53:46.191Z,10.68
2023-05-07T22:56:15.475Z,16.33
2023-05-07T22:58:44.592Z,7.43
2023-05-07T23:01:19.586Z,17.33
2023-05-07T23:03:48.949Z,8.10
2023-05-07T23:06:18.351Z,9.02
2023-05-07T23:08:47.545Z,9.80
2023-05-07T23:11:16.974Z,12.63
2023-05-07T23:13:45.996Z,11.60
2023-05-07T23:16:15.142Z,6.97
2023-05-07T23:18:44.534Z,8.43
2023-05-07T23:21:13.732Z,5.75
2023-05-07T23:23:42.878Z,7.45
2023-05-07T23:26:12.582Z,23.05
2023-05-07T23:28:42.543Z,6.05
2023-05-07T23:31:13.894Z,7.25
2023-05-07T23:33:43.368Z,8.73
2023-05-07T23:36:12.318Z,9.45
2023-05-07T23:38:41.636Z,18.30
2023-05-07T23:41:10.204Z,11.50
2023-05-07T23:43:39.837Z,9.35
2023-05-07T23:46:09.058Z,6.72
2023-05-07T23:48:38.309Z,10.43
2023-05-07T23:51:07.384Z,6.88
2023-05-07T23:53:37.190Z,8.45
2023-05-07T23:56:06.991Z,7.68
2023-05-07T23:58:36.495Z,6.30
